sensor_id;sensor_type;location;lat;lon;timestamp;P1;durP1;ratioP1;P2;durP2;ratioP2
29358;SDS011;16347;53.232;6.556;2022-08-24T00:02:21;22.80;;;19.15;;
29358;SDS011;16347;53.232;6.556;2022-08-24T00:04:52;18.63;;;12.70;;
29358;SDS011;16347;53.232;6.556;2022-08-24T00:07:23;22.25;;;15.88;;
29358;SDS011;16347;53.232;6.556;2022-08-24T00:09:54;16.63;;;12.03;;
29358;SDS011;16347;53.232;6.556;2022-08-24T00:12:23;33.47;;;24.25;;
29358;SDS011;16347;53.232;6.556;2022-08-24T00:14:53;33.58;;;25.90;;
29358;SDS011;16347;53.232;6.556;2022-08-24T00:17:23;29.58;;;21.23;;
29358;SDS011;16347;53.232;6.556;2022-08-24T00:19:52;16.45;;;13.20;;
29358;SDS011;16347;53.232;6.556;2022-08-24T00:22:25;26.63;;;20.20;;
29358;SDS011;16347;53.232;6.556;2022-08-24T00:24:56;27.70;;;18.60;;
29358;SDS011;16347;53.232;6.556;2022-08-24T00:27:26;24.55;;;18.73;;
29358;SDS011;16347;53.232;6.556;2022-08-24T00:29:58;18.98;;;12.65;;
29358;SDS011;16347;53.232;6.556;2022-08-24T00:32:27;23.17;;;15.32;;
29358;SDS011;16347;53.232;6.556;2022-08-24T00:34:55;24.52;;;18.38;;
29358;SDS011;16347;53.232;6.556;2022-08-24T00:37:26;28.98;;;21.60;;
29358;SDS011;16347;53.232;6.556;2022-08-24T00:39:55;28.27;;;20.65;;
29358;SDS011;16347;53.232;6.556;2022-08-24T00:42:25;37.38;;;25.67;;
29358;SDS011;16347;53.232;6.556;2022-08-24T00:44:53;26.40;;;20.98;;
29358;SDS011;16347;53.232;6.556;2022-08-24T00:47:24;26.65;;;17.77;;
29358;SDS011;16347;53.232;6.556;2022-08-24T00:50:04;20.33;;;15.63;;
29358;SDS011;16347;53.232;6.556;2022-08-24T00:52:39;29.05;;;21.75;;
29358;SDS011;16347;53.232;6.556;2022-08-24T00:55:16;32.50;;;22.38;;
29358;SDS011;16347;53.232;6.556;2022-08-24T00:57:51;31.48;;;22.50;;
29358;SDS011;16347;53.232;6.556;2022-08-24T01:00:31;34.58;;;22.10;;
29358;SDS011;16347;53.232;6.556;2022-08-24T01:03:16;30.85;;;23.95;;
29358;SDS011;16347;53.232;6.556;2022-08-24T01:05:47;36.83;;;27.70;;
29358;SDS011;16347;53.232;6.556;2022-08-24T01:08:21;28.73;;;20.27;;
29358;SDS011;16347;53.232;6.556;2022-08-24T01:10:55;24.38;;;15.98;;
29358;SDS011;16347;53.232;6.556;2022-08-24T01:13:28;24.83;;;17.45;;
29358;SDS011;16347;53.232;6.556;2022-08-24T01:16:02;21.77;;;15.73;;
29358;SDS011;16347;53.232;6.556;2022-08-24T01:18:37;31.85;;;21.63;;
29358;SDS011;16347;53.232;6.556;2022-08-24T01:23:55;31.27;;;21.98;;
29358;SDS011;16347;53.232;6.556;2022-08-24T01:26:27;20.30;;;14.20;;
29358;SDS011;16347;53.232;6.556;2022-08-24T01:29:05;18.50;;;14.43;;
29358;SDS011;16347;53.232;6.556;2022-08-24T01:31:39;24.92;;;18.98;;
29358;SDS011;16347;53.232;6.556;2022-08-24T01:34:10;29.13;;;22.25;;
29358;SDS011;16347;53.232;6.556;2022-08-24T01:36:42;16.25;;;13.93;;
29358;SDS011;16347;53.232;6.556;2022-08-24T01:39:18;24.60;;;15.15;;
29358;SDS011;16347;53.232;6.556;2022-08-24T01:41:51;19.65;;;12.77;;
29358;SDS011;16347;53.232;6.556;2022-08-24T01:44:22;32.63;;;20.63;;
29358;SDS011;16347;53.232;6.556;2022-08-24T01:46:55;15.05;;;11.35;;
29358;SDS011;16347;53.232;6.556;2022-08-24T01:49:28;16.85;;;14.07;;
29358;SDS011;16347;53.232;6.556;2022-08-24T01:51:59;17.13;;;12.40;;
29358;SDS011;16347;53.232;6.556;2022-08-24T01:54:35;28.90;;;20.00;;
29358;SDS011;16347;53.232;6.556;2022-08-24T01:57:10;12.23;;;9.70;;
29358;SDS011;16347;53.232;6.556;2022-08-24T01:59:44;14.35;;;10.73;;
29358;SDS011;16347;53.232;6.556;2022-08-24T02:02:17;18.80;;;11.43;;
29358;SDS011;16347;53.232;6.556;2022-08-24T02:04:49;21.15;;;17.50;;
29358;SDS011;16347;53.232;6.556;2022-08-24T02:07:21;14.82;;;9.80;;
29358;SDS011;16347;53.232;6.556;2022-08-24T02:09:54;13.98;;;9.68;;
29358;SDS011;16347;53.232;6.556;2022-08-24T02:12:26;14.35;;;11.15;;
29358;SDS011;16347;53.232;6.556;2022-08-24T02:14:58;21.33;;;15.95;;
29358;SDS011;16347;53.232;6.556;2022-08-24T02:17:30;24.40;;;17.42;;
29358;SDS011;16347;53.232;6.556;2022-08-24T02:20:00;15.10;;;10.98;;
29358;SDS011;16347;53.232;6.556;2022-08-24T02:22:32;28.15;;;17.33;;
29358;SDS011;16347;53.232;6.556;2022-08-24T02:25:03;13.13;;;10.02;;
29358;SDS011;16347;53.232;6.556;2022-08-24T02:27:37;19.00;;;12.07;;
29358;SDS011;16347;53.232;6.556;2022-08-24T02:30:08;23.33;;;12.38;;
29358;SDS011;16347;53.232;6.556;2022-08-24T02:32:41;24.52;;;15.27;;
29358;SDS011;16347;53.232;6.556;2022-08-24T02:35:09;23.45;;;18.70;;
29358;SDS011;16347;53.232;6.556;2022-08-24T02:37:38;22.23;;;15.43;;
29358;SDS011;16347;53.232;6.556;2022-08-24T02:40:15;19.42;;;14.77;;
29358;SDS011;16347;53.232;6.556;2022-08-24T02:42:48;15.25;;;11.50;;
29358;SDS011;16347;53.232;6.556;2022-08-24T02:45:20;14.07;;;9.65;;
29358;SDS011;16347;53.232;6.556;2022-08-24T02:47:50;20.40;;;15.75;;
29358;SDS011;16347;53.232;6.556;2022-08-24T02:50:22;19.88;;;15.48;;
29358;SDS011;16347;53.232;6.556;2022-08-24T02:52:55;19.15;;;13.57;;
29358;SDS011;16347;53.232;6.556;2022-08-24T02:55:28;13.93;;;10.82;;
29358;SDS011;16347;53.232;6.556;2022-08-24T02:57:59;15.48;;;10.30;;
29358;SDS011;16347;53.232;6.556;2022-08-24T03:00:27;19.80;;;15.80;;
29358;SDS011;16347;53.232;6.556;2022-08-24T03:02:57;15.18;;;10.55;;
29358;SDS011;16347;53.232;6.556;2022-08-24T03:05:26;11.35;;;9.68;;
29358;SDS011;16347;53.232;6.556;2022-08-24T03:07:56;12.65;;;9.38;;
29358;SDS011;16347;53.232;6.556;2022-08-24T03:10:29;22.13;;;14.98;;
29358;SDS011;16347;53.232;6.556;2022-08-24T03:13:03;15.25;;;10.30;;
29358;SDS011;16347;53.232;6.556;2022-08-24T03:15:34;20.20;;;14.20;;
29358;SDS011;16347;53.232;6.556;2022-08-24T03:18:05;12.05;;;9.57;;
29358;SDS011;16347;53.232;6.556;2022-08-24T03:20:42;13.18;;;8.35;;
29358;SDS011;16347;53.232;6.556;2022-08-24T03:23:13;14.40;;;9.00;;
29358;SDS011;16347;53.232;6.556;2022-08-24T03:25:45;9.18;;;7.97;;
29358;SDS011;16347;53.232;6.556;2022-08-24T03:28:14;18.20;;;12.30;;
29358;SDS011;16347;53.232;6.556;2022-08-24T03:30:44;19.40;;;13.68;;
29358;SDS011;16347;53.232;6.556;2022-08-24T03:33:15;16.60;;;11.80;;
29358;SDS011;16347;53.232;6.556;2022-08-24T03:35:44;17.88;;;12.57;;
29358;SDS011;16347;53.232;6.556;2022-08-24T03:38:14;15.48;;;10.90;;
29358;SDS011;16347;53.232;6.556;2022-08-24T03:40:45;12.88;;;10.07;;
29358;SDS011;16347;53.232;6.556;2022-08-24T03:43:14;12.20;;;9.18;;
29358;SDS011;16347;53.232;6.556;2022-08-24T03:45:58;17.33;;;9.93;;
29358;SDS011;16347;53.232;6.556;2022-08-24T03:48:31;13.85;;;10.10;;
29358;SDS011;16347;53.232;6.556;2022-08-24T03:51:00;13.60;;;11.73;;
29358;SDS011;16347;53.232;6.556;2022-08-24T03:53:30;12.95;;;9.52;;
29358;SDS011;16347;53.232;6.556;2022-08-24T03:56:08;11.85;;;9.05;;
29358;SDS011;16347;53.232;6.556;2022-08-24T03:58:42;10.13;;;7.95;;
29358;SDS011;16347;53.232;6.556;2022-08-24T04:01:13;10.40;;;7.80;;
29358;SDS011;16347;53.232;6.556;2022-08-24T04:03:47;10.88;;;8.40;;
29358;SDS011;16347;53.232;6.556;2022-08-24T04:06:21;19.63;;;14.55;;
29358;SDS011;16347;53.232;6.556;2022-08-24T04:08:54;12.55;;;9.30;;
29358;SDS011;16347;53.232;6.556;2022-08-24T04:11:27;14.82;;;11.55;;
29358;SDS011;16347;53.232;6.556;2022-08-24T04:13:58;17.50;;;12.52;;
29358;SDS011;16347;53.232;6.556;2022-08-24T04:16:29;20.13;;;14.60;;
29358;SDS011;16347;53.232;6.556;2022-08-24T04:19:13;17.98;;;13.45;;
29358;SDS011;16347;53.232;6.556;2022-08-24T04:21:43;19.92;;;12.25;;
29358;SDS011;16347;53.232;6.556;2022-08-24T04:24:13;13.38;;;9.68;;
29358;SDS011;16347;53.232;6.556;2022-08-24T04:26:45;18.63;;;12.77;;
29358;SDS011;16347;53.232;6.556;2022-08-24T04:29:17;13.82;;;10.27;;
29358;SDS011;16347;53.232;6.556;2022-08-24T04:31:52;9.73;;;8.68;;
29358;SDS011;16347;53.232;6.556;2022-08-24T04:34:22;20.33;;;14.88;;
29358;SDS011;16347;53.232;6.556;2022-08-24T04:36:53;17.10;;;12.82;;
29358;SDS011;16347;53.232;6.556;2022-08-24T04:39:26;16.17;;;11.07;;
29358;SDS011;16347;53.232;6.556;2022-08-24T04:42:22;21.60;;;15.55;;
29358;SDS011;16347;53.232;6.556;2022-08-24T04:44:53;14.30;;;11.43;;
29358;SDS011;16347;53.232;6.556;2022-08-24T04:47:27;13.73;;;11.23;;
29358;SDS011;16347;53.232;6.556;2022-08-24T04:49:59;14.43;;;10.25;;
29358;SDS011;16347;53.232;6.556;2022-08-24T04:52:30;15.07;;;9.38;;
29358;SDS011;16347;53.232;6.556;2022-08-24T04:55:00;13.15;;;9.38;;
29358;SDS011;16347;53.232;6.556;2022-08-24T04:57:36;9.88;;;8.48;;
29358;SDS011;16347;53.232;6.556;2022-08-24T05:00:07;10.23;;;8.55;;
29358;SDS011;16347;53.232;6.556;2022-08-24T05:02:42;14.35;;;8.70;;
29358;SDS011;16347;53.232;6.556;2022-08-24T05:05:13;12.20;;;8.55;;
29358;SDS011;16347;53.232;6.556;2022-08-24T05:07:45;13.48;;;9.88;;
29358;SDS011;16347;53.232;6.556;2022-08-24T05:10:14;13.25;;;9.48;;
29358;SDS011;16347;53.232;6.556;2022-08-24T05:12:44;12.20;;;9.30;;
29358;SDS011;16347;53.232;6.556;2022-08-24T05:15:17;14.75;;;11.13;;
29358;SDS011;16347;53.232;6.556;2022-08-24T05:17:47;22.33;;;14.35;;
29358;SDS011;16347;53.232;6.556;2022-08-24T05:20:18;21.48;;;13.98;;
29358;SDS011;16347;53.232;6.556;2022-08-24T05:22:50;17.13;;;12.32;;
29358;SDS011;16347;53.232;6.556;2022-08-24T05:25:21;15.20;;;10.05;;
29358;SDS011;16347;53.232;6.556;2022-08-24T05:27:51;15.05;;;11.35;;
29358;SDS011;16347;53.232;6.556;2022-08-24T05:30:21;24.45;;;17.35;;
29358;SDS011;16347;53.232;6.556;2022-08-24T05:32:50;20.77;;;13.82;;
29358;SDS011;16347;53.232;6.556;2022-08-24T05:35:21;16.98;;;11.82;;
29358;SDS011;16347;53.232;6.556;2022-08-24T05:37:52;16.88;;;13.10;;
29358;SDS011;16347;53.232;6.556;2022-08-24T05:40:31;18.05;;;14.13;;
29358;SDS011;16347;53.232;6.556;2022-08-24T05:43:02;24.95;;;18.17;;
29358;SDS011;16347;53.232;6.556;2022-08-24T05:45:31;21.20;;;14.80;;
29358;SDS011;16347;53.232;6.556;2022-08-24T05:48:00;29.50;;;20.77;;
29358;SDS011;16347;53.232;6.556;2022-08-24T05:50:57;26.13;;;19.38;;
29358;SDS011;16347;53.232;6.556;2022-08-24T05:53:32;23.60;;;18.23;;
29358;SDS011;16347;53.232;6.556;2022-08-24T05:56:03;28.73;;;21.10;;
29358;SDS011;16347;53.232;6.556;2022-08-24T05:58:35;28.88;;;21.75;;
29358;SDS011;16347;53.232;6.556;2022-08-24T06:01:06;28.17;;;19.38;;
29358;SDS011;16347;53.232;6.556;2022-08-24T06:03:36;19.65;;;16.63;;
29358;SDS011;16347;53.232;6.556;2022-08-24T06:06:07;20.10;;;15.60;;
29358;SDS011;16347;53.232;6.556;2022-08-24T06:08:41;23.00;;;16.75;;
29358;SDS011;16347;53.232;6.556;2022-08-24T06:14:00;17.30;;;12.35;;
29358;SDS011;16347;53.232;6.556;2022-08-24T06:16:37;18.40;;;13.40;;
29358;SDS011;16347;53.232;6.556;2022-08-24T06:19:12;31.25;;;18.60;;
29358;SDS011;16347;53.232;6.556;2022-08-24T06:21:43;23.63;;;17.85;;
29358;SDS011;16347;53.232;6.556;2022-08-24T06:24:14;27.05;;;18.92;;
29358;SDS011;16347;53.232;6.556;2022-08-24T06:26:46;18.58;;;15.57;;
29358;SDS011;16347;53.232;6.556;2022-08-24T06:29:37;20.45;;;14.10;;
29358;SDS011;16347;53.232;6.556;2022-08-24T06:32:25;18.13;;;12.18;;
29358;SDS011;16347;53.232;6.556;2022-08-24T06:34:54;18.52;;;14.45;;
29358;SDS011;16347;53.232;6.556;2022-08-24T06:37:25;17.70;;;15.07;;
29358;SDS011;16347;53.232;6.556;2022-08-24T06:39:55;23.85;;;17.65;;
29358;SDS011;16347;53.232;6.556;2022-08-24T06:42:24;23.90;;;16.88;;
29358;SDS011;16347;53.232;6.556;2022-08-24T06:47:27;19.75;;;15.10;;
29358;SDS011;16347;53.232;6.556;2022-08-24T06:49:59;24.37;;;15.17;;
29358;SDS011;16347;53.232;6.556;2022-08-24T06:52:33;25.75;;;15.73;;
29358;SDS011;16347;53.232;6.556;2022-08-24T06:55:06;25.15;;;15.25;;
29358;SDS011;16347;53.232;6.556;2022-08-24T06:57:36;20.38;;;13.30;;
29358;SDS011;16347;53.232;6.556;2022-08-24T07:00:07;17.92;;;10.75;;
29358;SDS011;16347;53.232;6.556;2022-08-24T07:02:37;15.27;;;10.15;;
29358;SDS011;16347;53.232;6.556;2022-08-24T07:05:09;12.65;;;8.35;;
29358;SDS011;16347;53.232;6.556;2022-08-24T07:07:56;11.52;;;8.05;;
29358;SDS011;16347;53.232;6.556;2022-08-24T07:10:28;11.70;;;7.88;;
29358;SDS011;16347;53.232;6.556;2022-08-24T07:12:57;14.90;;;8.93;;
29358;SDS011;16347;53.232;6.556;2022-08-24T07:15:29;15.15;;;8.10;;
29358;SDS011;16347;53.232;6.556;2022-08-24T07:18:07;11.20;;;7.30;;
29358;SDS011;16347;53.232;6.556;2022-08-24T07:20:46;15.25;;;7.93;;
29358;SDS011;16347;53.232;6.556;2022-08-24T07:23:30;15.40;;;8.32;;
29358;SDS011;16347;53.232;6.556;2022-08-24T07:26:09;17.92;;;8.48;;
29358;SDS011;16347;53.232;6.556;2022-08-24T07:28:51;14.77;;;8.45;;
29358;SDS011;16347;53.232;6.556;2022-08-24T07:31:30;11.10;;;6.88;;
29358;SDS011;16347;53.232;6.556;2022-08-24T07:34:10;20.48;;;8.18;;
29358;SDS011;16347;53.232;6.556;2022-08-24T07:36:42;12.27;;;7.40;;
29358;SDS011;16347;53.232;6.556;2022-08-24T07:39:11;14.05;;;7.47;;
29358;SDS011;16347;53.232;6.556;2022-08-24T07:41:41;11.73;;;7.43;;
29358;SDS011;16347;53.232;6.556;2022-08-24T07:44:33;10.52;;;6.90;;
29358;SDS011;16347;53.232;6.556;2022-08-24T07:47:06;13.20;;;7.30;;
29358;SDS011;16347;53.232;6.556;2022-08-24T07:49:57;12.80;;;6.30;;
29358;SDS011;16347;53.232;6.556;2022-08-24T07:52:28;14.00;;;6.38;;
29358;SDS011;16347;53.232;6.556;2022-08-24T07:55:00;25.05;;;12.85;;
29358;SDS011;16347;53.232;6.556;2022-08-24T07:57:37;32.65;;;19.77;;
29358;SDS011;16347;53.232;6.556;2022-08-24T08:00:14;35.65;;;20.00;;
29358;SDS011;16347;53.232;6.556;2022-08-24T08:02:56;38.03;;;22.33;;
29358;SDS011;16347;53.232;6.556;2022-08-24T08:05:25;54.33;;;31.52;;
29358;SDS011;16347;53.232;6.556;2022-08-24T08:07:55;39.70;;;23.20;;
29358;SDS011;16347;53.232;6.556;2022-08-24T08:10:27;23.90;;;13.45;;
29358;SDS011;16347;53.232;6.556;2022-08-24T08:12:57;13.70;;;8.43;;
29358;SDS011;16347;53.232;6.556;2022-08-24T08:15:27;31.95;;;18.00;;
29358;SDS011;16347;53.232;6.556;2022-08-24T08:18:05;31.73;;;17.80;;
29358;SDS011;16347;53.232;6.556;2022-08-24T08:20:38;20.88;;;9.90;;
29358;SDS011;16347;53.232;6.556;2022-08-24T08:23:12;9.18;;;5.00;;
29358;SDS011;16347;53.232;6.556;2022-08-24T08:26:11;27.35;;;9.13;;
29358;SDS011;16347;53.232;6.556;2022-08-24T08:28:56;13.05;;;6.43;;
29358;SDS011;16347;53.232;6.556;2022-08-24T08:31:28;13.02;;;7.32;;
29358;SDS011;16347;53.232;6.556;2022-08-24T08:34:03;9.68;;;5.40;;
29358;SDS011;16347;53.232;6.556;2022-08-24T08:36:37;8.05;;;4.53;;
29358;SDS011;16347;53.232;6.556;2022-08-24T08:39:07;18.02;;;10.68;;
29358;SDS011;16347;53.232;6.556;2022-08-24T08:44:44;38.67;;;19.60;;
29358;SDS011;16347;53.232;6.556;2022-08-24T08:47:29;14.75;;;7.88;;
29358;SDS011;16347;53.232;6.556;2022-08-24T08:50:25;8.85;;;4.70;;
29358;SDS011;16347;53.232;6.556;2022-08-24T08:53:23;10.35;;;4.85;;
29358;SDS011;16347;53.232;6.556;2022-08-24T08:56:12;9.45;;;3.97;;
29358;SDS011;16347;53.232;6.556;2022-08-24T08:58:53;10.60;;;5.93;;
29358;SDS011;16347;53.232;6.556;2022-08-24T09:01:54;20.83;;;11.43;;
29358;SDS011;16347;53.232;6.556;2022-08-24T09:04:49;20.60;;;12.55;;
29358;SDS011;16347;53.232;6.556;2022-08-24T09:07:45;31.40;;;18.42;;
29358;SDS011;16347;53.232;6.556;2022-08-24T09:10:30;23.55;;;13.57;;
29358;SDS011;16347;53.232;6.556;2022-08-24T09:13:21;19.92;;;11.88;;
29358;SDS011;16347;53.232;6.556;2022-08-24T09:16:19;25.95;;;12.02;;
29358;SDS011;16347;53.232;6.556;2022-08-24T09:19:04;22.77;;;13.95;;
29358;SDS011;16347;53.232;6.556;2022-08-24T09:22:09;19.73;;;10.02;;
29358;SDS011;16347;53.232;6.556;2022-08-24T09:28:19;20.90;;;11.40;;
29358;SDS011;16347;53.232;6.556;2022-08-24T09:31:23;15.38;;;9.55;;
29358;SDS011;16347;53.232;6.556;2022-08-24T09:34:08;12.48;;;7.43;;
29358;SDS011;16347;53.232;6.556;2022-08-24T09:36:58;20.20;;;10.60;;
29358;SDS011;16347;53.232;6.556;2022-08-24T09:39:48;16.15;;;8.15;;
29358;SDS011;16347;53.232;6.556;2022-08-24T09:51:52;8.10;;;4.57;;
29358;SDS011;16347;53.232;6.556;2022-08-24T09:57:47;7.57;;;3.42;;
29358;SDS011;16347;53.232;6.556;2022-08-24T10:00:32;7.63;;;4.10;;
29358;SDS011;16347;53.232;6.556;2022-08-24T10:03:20;8.68;;;4.40;;
29358;SDS011;16347;53.232;6.556;2022-08-24T10:06:11;5.63;;;3.90;;
29358;SDS011;16347;53.232;6.556;2022-08-24T10:09:10;4.22;;;3.13;;
29358;SDS011;16347;53.232;6.556;2022-08-24T10:11:53;5.68;;;3.67;;
29358;SDS011;16347;53.232;6.556;2022-08-24T10:14:38;9.63;;;3.22;;
29358;SDS011;16347;53.232;6.556;2022-08-24T10:17:21;6.65;;;3.85;;
29358;SDS011;16347;53.232;6.556;2022-08-24T10:20:07;5.82;;;3.72;;
29358;SDS011;16347;53.232;6.556;2022-08-24T10:25:50;10.18;;;5.00;;
29358;SDS011;16347;53.232;6.556;2022-08-24T10:28:42;5.90;;;3.45;;
29358;SDS011;16347;53.232;6.556;2022-08-24T10:31:30;6.05;;;2.85;;
29358;SDS011;16347;53.232;6.556;2022-08-24T10:34:14;5.28;;;3.00;;
29358;SDS011;16347;53.232;6.556;2022-08-24T10:37:19;4.40;;;2.78;;
29358;SDS011;16347;53.232;6.556;2022-08-24T10:43:04;4.40;;;2.97;;
29358;SDS011;16347;53.232;6.556;2022-08-24T10:52:26;8.18;;;3.58;;
29358;SDS011;16347;53.232;6.556;2022-08-24T10:55:15;3.85;;;2.67;;
29358;SDS011;16347;53.232;6.556;2022-08-24T10:57:51;4.15;;;2.83;;
29358;SDS011;16347;53.232;6.556;2022-08-24T11:00:34;6.20;;;2.83;;
29358;SDS011;16347;53.232;6.556;2022-08-24T11:03:04;9.40;;;3.78;;
29358;SDS011;16347;53.232;6.556;2022-08-24T11:05:37;3.72;;;2.58;;
29358;SDS011;16347;53.232;6.556;2022-08-24T11:08:11;3.08;;;2.60;;
29358;SDS011;16347;53.232;6.556;2022-08-24T11:11:03;6.22;;;2.42;;
29358;SDS011;16347;53.232;6.556;2022-08-24T11:13:34;4.20;;;2.28;;
29358;SDS011;16347;53.232;6.556;2022-08-24T11:16:05;4.10;;;2.80;;
29358;SDS011;16347;53.232;6.556;2022-08-24T11:18:44;5.78;;;2.30;;
29358;SDS011;16347;53.232;6.556;2022-08-24T11:21:19;4.68;;;2.55;;
29358;SDS011;16347;53.232;6.556;2022-08-24T11:24:02;3.67;;;2.20;;
29358;SDS011;16347;53.232;6.556;2022-08-24T11:26:34;8.77;;;2.72;;
29358;SDS011;16347;53.232;6.556;2022-08-24T11:29:19;6.32;;;2.85;;
29358;SDS011;16347;53.232;6.556;2022-08-24T11:31:49;12.55;;;2.75;;
29358;SDS011;16347;53.232;6.556;2022-08-24T11:34:19;8.07;;;2.50;;
29358;SDS011;16347;53.232;6.556;2022-08-24T11:36:58;3.58;;;2.20;;
29358;SDS011;16347;53.232;6.556;2022-08-24T11:39:31;3.70;;;2.40;;
29358;SDS011;16347;53.232;6.556;2022-08-24T11:42:12;3.47;;;2.15;;
29358;SDS011;16347;53.232;6.556;2022-08-24T11:44:57;3.63;;;2.40;;
29358;SDS011;16347;53.232;6.556;2022-08-24T11:47:37;5.80;;;2.38;;
29358;SDS011;16347;53.232;6.556;2022-08-24T11:50:23;2.58;;;2.22;;
29358;SDS011;16347;53.232;6.556;2022-08-24T11:52:58;4.75;;;2.45;;
29358;SDS011;16347;53.232;6.556;2022-08-24T11:55:40;4.18;;;2.00;;
29358;SDS011;16347;53.232;6.556;2022-08-24T11:58:29;4.03;;;2.47;;
29358;SDS011;16347;53.232;6.556;2022-08-24T12:01:07;3.25;;;2.50;;
29358;SDS011;16347;53.232;6.556;2022-08-24T12:03:49;2.75;;;2.17;;
29358;SDS011;16347;53.232;6.556;2022-08-24T12:06:30;4.28;;;2.03;;
29358;SDS011;16347;53.232;6.556;2022-08-24T12:09:11;2.58;;;1.80;;
29358;SDS011;16347;53.232;6.556;2022-08-24T12:11:54;5.55;;;2.20;;
29358;SDS011;16347;53.232;6.556;2022-08-24T12:14:31;2.15;;;1.90;;
29358;SDS011;16347;53.232;6.556;2022-08-24T12:17:05;3.50;;;1.70;;
29358;SDS011;16347;53.232;6.556;2022-08-24T12:19:43;3.58;;;1.70;;
29358;SDS011;16347;53.232;6.556;2022-08-24T12:22:15;5.20;;;1.88;;
29358;SDS011;16347;53.232;6.556;2022-08-24T12:24:47;2.58;;;1.85;;
29358;SDS011;16347;53.232;6.556;2022-08-24T12:27:22;2.35;;;1.63;;
29358;SDS011;16347;53.232;6.556;2022-08-24T12:29:53;6.00;;;1.90;;
29358;SDS011;16347;53.232;6.556;2022-08-24T12:32:27;3.75;;;2.15;;
29358;SDS011;16347;53.232;6.556;2022-08-24T12:35:05;2.63;;;1.50;;
29358;SDS011;16347;53.232;6.556;2022-08-24T12:37:36;3.38;;;1.90;;
29358;SDS011;16347;53.232;6.556;2022-08-24T12:40:11;6.35;;;2.97;;
29358;SDS011;16347;53.232;6.556;2022-08-24T12:42:50;4.72;;;2.92;;
29358;SDS011;16347;53.232;6.556;2022-08-24T12:45:22;4.65;;;2.90;;
29358;SDS011;16347;53.232;6.556;2022-08-24T12:47:53;8.25;;;3.00;;
29358;SDS011;16347;53.232;6.556;2022-08-24T12:50:26;7.47;;;1.60;;
29358;SDS011;16347;53.232;6.556;2022-08-24T12:56:04;2.92;;;1.83;;
29358;SDS011;16347;53.232;6.556;2022-08-24T12:58:53;14.00;;;2.03;;
29358;SDS011;16347;53.232;6.556;2022-08-24T13:01:27;4.65;;;1.45;;
29358;SDS011;16347;53.232;6.556;2022-08-24T13:04:03;4.20;;;1.88;;
29358;SDS011;16347;53.232;6.556;2022-08-24T13:06:36;3.67;;;2.15;;
29358;SDS011;16347;53.232;6.556;2022-08-24T13:11:40;3.63;;;2.13;;
29358;SDS011;16347;53.232;6.556;2022-08-24T13:14:17;2.13;;;1.70;;
29358;SDS011;16347;53.232;6.556;2022-08-24T13:17:06;4.10;;;1.73;;
29358;SDS011;16347;53.232;6.556;2022-08-24T13:19:40;8.07;;;2.00;;
29358;SDS011;16347;53.232;6.556;2022-08-24T13:24:59;4.07;;;1.92;;
29358;SDS011;16347;53.232;6.556;2022-08-24T13:33:34;9.85;;;6.10;;
29358;SDS011;16347;53.232;6.556;2022-08-24T13:42:39;6.18;;;3.47;;
29358;SDS011;16347;53.232;6.556;2022-08-24T13:45:23;4.18;;;3.25;;
29358;SDS011;16347;53.232;6.556;2022-08-24T13:51:14;3.28;;;2.40;;
29358;SDS011;16347;53.232;6.556;2022-08-24T13:54:17;6.65;;;2.40;;
29358;SDS011;16347;53.232;6.556;2022-08-24T13:56:59;6.05;;;2.90;;
29358;SDS011;16347;53.232;6.556;2022-08-24T13:59:45;3.90;;;2.60;;
29358;SDS011;16347;53.232;6.556;2022-08-24T14:02:30;4.90;;;2.47;;
29358;SDS011;16347;53.232;6.556;2022-08-24T14:05:21;4.07;;;2.10;;
29358;SDS011;16347;53.232;6.556;2022-08-24T14:08:02;3.13;;;2.40;;
29358;SDS011;16347;53.232;6.556;2022-08-24T14:10:43;5.65;;;3.95;;
29358;SDS011;16347;53.232;6.556;2022-08-24T14:13:27;8.48;;;4.50;;
29358;SDS011;16347;53.232;6.556;2022-08-24T14:16:09;6.63;;;4.35;;
29358;SDS011;16347;53.232;6.556;2022-08-24T14:19:16;6.00;;;3.70;;
29358;SDS011;16347;53.232;6.556;2022-08-24T14:21:54;3.33;;;2.80;;
29358;SDS011;16347;53.232;6.556;2022-08-24T14:24:37;5.72;;;2.92;;
29358;SDS011;16347;53.232;6.556;2022-08-24T14:27:33;6.07;;;3.17;;
29358;SDS011;16347;53.232;6.556;2022-08-24T14:33:14;3.55;;;2.80;;
29358;SDS011;16347;53.232;6.556;2022-08-24T14:38:49;8.60;;;5.38;;
29358;SDS011;16347;53.232;6.556;2022-08-24T14:41:39;16.67;;;11.40;;
29358;SDS011;16347;53.232;6.556;2022-08-24T14:44:17;43.47;;;26.67;;
29358;SDS011;16347;53.232;6.556;2022-08-24T14:47:12;47.63;;;28.35;;
29358;SDS011;16347;53.232;6.556;2022-08-24T14:49:57;73.60;;;45.10;;
29358;SDS011;16347;53.232;6.556;2022-08-24T14:53:02;53.75;;;33.03;;
29358;SDS011;16347;53.232;6.556;2022-08-24T14:55:51;56.97;;;36.95;;
29358;SDS011;16347;53.232;6.556;2022-08-24T14:58:29;57.88;;;36.80;;
29358;SDS011;16347;53.232;6.556;2022-08-24T15:01:31;84.78;;;53.38;;
29358;SDS011;16347;53.232;6.556;2022-08-24T15:04:10;57.78;;;36.92;;
29358;SDS011;16347;53.232;6.556;2022-08-24T15:07:17;44.17;;;28.10;;
29358;SDS011;16347;53.232;6.556;2022-08-24T15:09:54;29.65;;;18.67;;
29358;SDS011;16347;53.232;6.556;2022-08-24T15:12:37;24.58;;;15.13;;
29358;SDS011;16347;53.232;6.556;2022-08-24T15:15:12;16.20;;;10.05;;
29358;SDS011;16347;53.232;6.556;2022-08-24T15:17:53;11.40;;;7.10;;
29358;SDS011;16347;53.232;6.556;2022-08-24T15:20:39;10.10;;;5.70;;
29358;SDS011;16347;53.232;6.556;2022-08-24T15:23:24;7.75;;;4.82;;
29358;SDS011;16347;53.232;6.556;2022-08-24T15:26:06;8.85;;;4.35;;
29358;SDS011;16347;53.232;6.556;2022-08-24T15:28:45;7.68;;;3.40;;
29358;SDS011;16347;53.232;6.556;2022-08-24T15:33:53;8.00;;;4.00;;
29358;SDS011;16347;53.232;6.556;2022-08-24T15:38:59;4.60;;;2.95;;
29358;SDS011;16347;53.232;6.556;2022-08-24T15:41:32;6.17;;;3.17;;
29358;SDS011;16347;53.232;6.556;2022-08-24T15:44:07;7.13;;;4.17;;
29358;SDS011;16347;53.232;6.556;2022-08-24T15:46:50;7.75;;;4.18;;
29358;SDS011;16347;53.232;6.556;2022-08-24T15:49:22;5.63;;;4.32;;
29358;SDS011;16347;53.232;6.556;2022-08-24T15:51:58;10.05;;;4.38;;
29358;SDS011;16347;53.232;6.556;2022-08-24T15:54:32;8.93;;;4.57;;
29358;SDS011;16347;53.232;6.556;2022-08-24T15:57:09;5.70;;;3.75;;
29358;SDS011;16347;53.232;6.556;2022-08-24T16:00:04;5.88;;;4.18;;
29358;SDS011;16347;53.232;6.556;2022-08-24T16:02:35;8.13;;;4.88;;
29358;SDS011;16347;53.232;6.556;2022-08-24T16:05:11;8.18;;;4.80;;
29358;SDS011;16347;53.232;6.556;2022-08-24T16:08:05;9.30;;;5.10;;
29358;SDS011;16347;53.232;6.556;2022-08-24T16:10:40;8.43;;;5.65;;
29358;SDS011;16347;53.232;6.556;2022-08-24T16:13:13;8.35;;;5.57;;
29358;SDS011;16347;53.232;6.556;2022-08-24T16:15:57;15.38;;;6.05;;
29358;SDS011;16347;53.232;6.556;2022-08-24T16:21:39;6.72;;;4.25;;
29358;SDS011;16347;53.232;6.556;2022-08-24T16:24:29;8.27;;;4.80;;
29358;SDS011;16347;53.232;6.556;2022-08-24T16:27:05;6.00;;;4.35;;
29358;SDS011;16347;53.232;6.556;2022-08-24T16:29:51;5.25;;;4.10;;
29358;SDS011;16347;53.232;6.556;2022-08-24T16:32:31;7.05;;;4.30;;
29358;SDS011;16347;53.232;6.556;2022-08-24T16:35:22;7.25;;;4.28;;
29358;SDS011;16347;53.232;6.556;2022-08-24T16:40:25;7.72;;;4.18;;
29358;SDS011;16347;53.232;6.556;2022-08-24T16:42:58;6.60;;;4.05;;
29358;SDS011;16347;53.232;6.556;2022-08-24T16:45:31;8.90;;;3.05;;
29358;SDS011;16347;53.232;6.556;2022-08-24T16:48:03;4.72;;;3.22;;
29358;SDS011;16347;53.232;6.556;2022-08-24T16:50:33;8.13;;;3.28;;
29358;SDS011;16347;53.232;6.556;2022-08-24T16:53:04;5.05;;;3.60;;